createdAt,value
2023-02-13T00:00:46.231Z,12.1
2023-02-13T00:02:03.336Z,12.2
2023-02-13T00:03:19.462Z,12.1
2023-02-13T00:04:35.583Z,12.2
2023-02-13T00:05:52.688Z,12.3
2023-02-13T00:07:08.814Z,11.4
2023-02-13T00:08:24.935Z,12.3
2023-02-13T00:09:42.040Z,12.3
2023-02-13T00:10:59.145Z,14.8
2023-02-13T00:12:16.250Z,11.7
2023-02-13T00:13:33.354Z,14.1
2023-02-13T00:14:50.459Z,13.4
2023-02-13T00:16:07.564Z,11.1
2023-02-13T00:17:24.667Z,15.1
2023-02-13T00:18:41.772Z,14.7
2023-02-13T00:19:58.877Z,11.9
2023-02-13T00:21:15.982Z,13.4
2023-02-13T00:22:33.086Z,12.4
2023-02-13T00:23:50.191Z,13.2
2023-02-13T00:25:06.312Z,13
2023-02-13T00:26:23.417Z,14.7
2023-02-13T00:27:40.522Z,12.5
2023-02-13T00:28:57.627Z,14.4
2023-02-13T00:30:14.731Z,14.3
2023-02-13T00:31:31.837Z,13.1
2023-02-13T00:32:48.941Z,15.2
2023-02-13T00:34:05.067Z,12.9
2023-02-13T00:35:21.188Z,12.9
2023-02-13T00:36:38.293Z,15.8
2023-02-13T00:37:54.419Z,12.8
2023-02-13T00:39:10.540Z,13.5
2023-02-13T00:40:27.645Z,14.1
2023-02-13T00:41:44.750Z,13
2023-02-13T00:43:01.855Z,13.7
2023-02-13T00:44:18.960Z,14.2
2023-02-13T00:45:36.065Z,13
2023-02-13T00:46:53.170Z,13.4
2023-02-13T00:48:10.275Z,13.6
2023-02-13T00:49:27.380Z,13
2023-02-13T00:50:44.484Z,13.8
2023-02-13T00:52:01.589Z,13.7
2023-02-13T00:53:18.694Z,14.5
2023-02-13T00:54:35.799Z,14.8
2023-02-13T00:55:51.920Z,14.2
2023-02-13T00:57:09.025Z,14.1
2023-02-13T00:58:26.130Z,13.4
2023-02-13T00:59:43.235Z,14.3
2023-02-13T01:01:00.340Z,14.5
2023-02-13T01:02:17.444Z,13.7
2023-02-13T01:03:34.549Z,14.5
2023-02-13T01:04:50.675Z,14.1
2023-02-13T01:06:06.796Z,15
2023-02-13T01:07:23.901Z,14.7
2023-02-13T01:08:41.006Z,15.1
2023-02-13T01:09:57.132Z,13.8
2023-02-13T01:11:13.253Z,14.4
2023-02-13T01:12:30.358Z,14.9
2023-02-13T01:13:47.463Z,15.1
2023-02-13T01:15:04.568Z,15.5
2023-02-13T01:16:21.673Z,14.8
2023-02-13T01:17:38.778Z,13.7
2023-02-13T01:18:55.883Z,14.8
2023-02-13T01:20:12.988Z,15.1
2023-02-13T01:21:30.092Z,15.2
2023-02-13T01:22:47.197Z,15.8
2023-02-13T01:24:04.302Z,15.2
2023-02-13T01:25:21.407Z,15.6
2023-02-13T01:26:38.512Z,14.8
2023-02-13T01:27:54.633Z,14.7
2023-02-13T01:29:11.738Z,15.8
2023-02-13T01:30:28.843Z,15.3
2023-02-13T01:31:45.948Z,15.6
2023-02-13T01:33:03.052Z,16.9
2023-02-13T01:34:20.157Z,15
2023-02-13T01:35:37.262Z,16.1
2023-02-13T01:36:53.389Z,17.3
2023-02-13T01:38:09.509Z,16.3
2023-02-13T01:39:26.614Z,16.8
2023-02-13T01:40:42.740Z,18.3
2023-02-13T01:41:58.861Z,17
2023-02-13T01:43:15.966Z,18
2023-02-13T01:44:33.071Z,18
2023-02-13T01:45:50.176Z,15.8
2023-02-13T01:47:07.281Z,17.1
2023-02-13T01:48:24.385Z,18.4
2023-02-13T01:49:41.490Z,19.3
2023-02-13T01:50:58.595Z,18.2
2023-02-13T01:52:15.700Z,18
2023-02-13T01:53:32.805Z,16.8
2023-02-13T01:54:49.910Z,17.8
2023-02-13T01:56:07.015Z,19.1
2023-02-13T01:57:24.120Z,18.4
2023-02-13T01:58:40.240Z,19.4
2023-02-13T01:59:57.345Z,18.3
2023-02-13T02:01:14.450Z,17.4
2023-02-13T02:02:31.555Z,19.6
2023-02-13T02:03:48.660Z,18.6
2023-02-13T02:05:05.765Z,18.3
2023-02-13T02:06:22.870Z,19.7
2023-02-13T02:07:38.996Z,18.9
2023-02-13T02:08:55.117Z,19.6
2023-02-13T02:10:11.243Z,19.1
2023-02-13T02:11:27.364Z,17.8
2023-02-13T02:12:44.469Z,18.6
2023-02-13T02:14:01.574Z,19.1
2023-02-13T02:15:18.678Z,19.7
2023-02-13T02:16:35.783Z,18.6
2023-02-13T02:17:52.888Z,18
2023-02-13T02:19:09.993Z,18.5
2023-02-13T02:20:27.098Z,19.7
2023-02-13T02:21:44.203Z,20.3
2023-02-13T02:23:01.307Z,19.8
2023-02-13T02:24:18.412Z,20.6
2023-02-13T02:25:35.517Z,20.9
2023-02-13T02:26:52.622Z,20.4
2023-02-13T02:28:08.743Z,22.3
2023-02-13T02:29:25.848Z,21.4
2023-02-13T02:30:42.953Z,19.9
2023-02-13T02:32:00.058Z,20.3
2023-02-13T02:33:17.162Z,21.5
2023-02-13T02:34:34.267Z,21.5
2023-02-13T02:35:51.372Z,21.8
2023-02-13T02:37:07.498Z,22.5
2023-02-13T02:38:23.619Z,22.3
2023-02-13T02:39:40.724Z,20
2023-02-13T02:40:56.850Z,21.8
2023-02-13T02:42:12.971Z,21.3
2023-02-13T02:43:30.076Z,19.7
2023-02-13T02:44:47.181Z,21.4
2023-02-13T02:46:04.286Z,21.7
2023-02-13T02:47:21.391Z,20.5
2023-02-13T02:48:38.495Z,21.7
2023-02-13T02:49:55.600Z,21.7
2023-02-13T02:51:12.705Z,22.4
2023-02-13T02:52:29.810Z,20.9
2023-02-13T02:53:46.915Z,20.6
2023-02-13T02:55:04.020Z,20.4
2023-02-13T02:56:21.123Z,21.6
2023-02-13T02:57:38.227Z,21.8
2023-02-13T02:58:54.348Z,22
2023-02-13T03:00:11.453Z,22.2
2023-02-13T03:01:28.558Z,22.9
2023-02-13T03:02:45.663Z,22.9
2023-02-13T03:04:02.767Z,24.7
2023-02-13T03:05:19.872Z,25
2023-02-13T03:06:36.977Z,22.7
2023-02-13T03:07:54.082Z,24.1
2023-02-13T03:09:11.188Z,24.8
2023-02-13T03:10:28.293Z,23.8
2023-02-13T03:11:45.398Z,24.7
2023-02-13T03:13:02.502Z,23.3
2023-02-13T03:14:19.607Z,22.2
2023-02-13T03:15:35.728Z,23.4
2023-02-13T03:16:52.833Z,22.9
2023-02-13T03:18:09.938Z,23.6
2023-02-13T03:19:27.043Z,23.6
2023-02-13T03:20:44.148Z,23.9
2023-02-13T03:22:01.253Z,24.3
2023-02-13T03:23:17.379Z,22.6
2023-02-13T03:24:33.500Z,22.5
2023-02-13T03:25:50.604Z,22.8
2023-02-13T03:27:06.730Z,22.5
2023-02-13T03:28:22.851Z,22.7
2023-02-13T03:29:39.956Z,20.6
2023-02-13T03:30:57.061Z,22.1
2023-02-13T03:32:14.166Z,22.2
2023-02-13T03:33:31.271Z,21.7
2023-02-13T03:34:48.376Z,22
2023-02-13T03:36:05.480Z,22.1
2023-02-13T03:37:22.585Z,22.3
2023-02-13T03:38:39.690Z,22.7
2023-02-13T03:39:56.795Z,22.4
2023-02-13T03:41:13.900Z,22.1
2023-02-13T03:42:31.005Z,23.8
2023-02-13T03:43:48.110Z,22.3
2023-02-13T03:45:04.231Z,21.8
2023-02-13T03:46:21.336Z,21.8
2023-02-13T03:47:38.440Z,23
2023-02-13T03:48:55.545Z,25.6
2023-02-13T03:50:12.650Z,23.8
2023-02-13T03:51:29.755Z,23.1
2023-02-13T03:52:46.860Z,21.9
2023-02-13T03:54:03.965Z,25.3
2023-02-13T03:55:21.070Z,24.1
2023-02-13T03:56:38.175Z,26.7
2023-02-13T03:57:55.280Z,27.8
2023-02-13T03:59:12.385Z,27.4
2023-02-13T04:00:29.490Z,25
2023-02-13T04:01:45.611Z,26.5
2023-02-13T04:03:02.715Z,25.9
2023-02-13T04:04:18.836Z,27.5
2023-02-13T04:05:35.941Z,27.3
2023-02-13T04:06:53.046Z,26.5
2023-02-13T04:08:10.151Z,25.8
2023-02-13T04:09:27.256Z,27.5
2023-02-13T04:10:44.361Z,26.2
2023-02-13T04:12:01.465Z,25.6
2023-02-13T04:13:18.570Z,24.9
2023-02-13T04:14:35.676Z,27.7
2023-02-13T04:15:52.781Z,25.5
2023-02-13T04:17:09.886Z,26.5
2023-02-13T04:18:26.991Z,25.5
2023-02-13T04:19:44.096Z,24.9
2023-02-13T04:21:00.216Z,25.6
2023-02-13T04:22:16.343Z,25.6
2023-02-13T04:23:32.463Z,26.3
2023-02-13T04:24:49.568Z,25.4
2023-02-13T04:26:06.673Z,26
2023-02-13T04:27:23.778Z,25.3
2023-02-13T04:28:40.883Z,27.2
2023-02-13T04:29:57.987Z,27.9
2023-02-13T04:31:15.092Z,25.2
2023-02-13T04:32:32.197Z,25.7
2023-02-13T04:33:49.302Z,26.3
2023-02-13T04:35:06.407Z,26
2023-02-13T04:36:23.512Z,25.5
2023-02-13T04:37:40.616Z,25.1
2023-02-13T04:38:57.721Z,29.4
2023-02-13T04:40:13.842Z,24
2023-02-13T04:41:30.947Z,25
2023-02-13T04:42:48.052Z,24.7
2023-02-13T04:44:05.157Z,24
2023-02-13T04:45:22.261Z,21.9
2023-02-13T04:46:39.366Z,22.1
2023-02-13T04:47:56.471Z,22.9
2023-02-13T04:49:12.597Z,23.2
2023-02-13T04:50:28.718Z,23.5
2023-02-13T04:51:45.823Z,23.8
2023-02-13T04:53:01.949Z,23.1
2023-02-13T04:54:18.070Z,23.2
2023-02-13T04:55:35.175Z,24.7
2023-02-13T04:56:52.279Z,22.7
2023-02-13T04:58:09.384Z,21.8
2023-02-13T04:59:26.489Z,23.9
2023-02-13T05:00:43.594Z,23.1
2023-02-13T05:02:00.699Z,22.1
2023-02-13T05:03:17.804Z,22.9
2023-02-13T05:04:34.908Z,24.1
2023-02-13T05:05:52.013Z,22
2023-02-13T05:07:09.118Z,22.8
2023-02-13T05:08:26.223Z,22.7
2023-02-13T05:09:43.328Z,22.4
2023-02-13T05:10:59.449Z,22.6
2023-02-13T05:12:16.554Z,21.7
2023-02-13T05:13:33.658Z,24.2
2023-02-13T05:14:50.763Z,23.9
2023-02-13T05:16:07.868Z,23.5
2023-02-13T05:17:24.973Z,24.6
2023-02-13T05:18:42.077Z,23.5
2023-02-13T05:19:58.204Z,24.4
2023-02-13T05:21:14.324Z,23.2
2023-02-13T05:22:30.451Z,23.1
2023-02-13T05:23:46.571Z,23
2023-02-13T05:25:03.676Z,21.3
2023-02-13T05:26:20.781Z,21.3
2023-02-13T05:27:36.907Z,20.9
2023-02-13T05:28:53.028Z,20.9
2023-02-13T05:30:10.133Z,21.6
2023-02-13T05:31:27.238Z,21.2
2023-02-13T05:32:44.343Z,22
2023-02-13T05:34:01.447Z,21.8
2023-02-13T05:35:18.552Z,21.9
2023-02-13T05:36:35.657Z,22.9
2023-02-13T05:37:52.762Z,22.6
2023-02-13T05:39:09.867Z,22.5
2023-02-13T05:40:26.972Z,22.8
2023-02-13T05:41:44.076Z,22.6
2023-02-13T05:43:01.181Z,24
2023-02-13T05:44:18.286Z,23.4
2023-02-13T05:45:34.407Z,22.9
2023-02-13T05:46:51.513Z,22.2
2023-02-13T05:48:08.617Z,21.6
2023-02-13T05:49:25.722Z,23.2
2023-02-13T05:50:42.827Z,24.5
2023-02-13T05:51:59.932Z,23
2023-02-13T05:53:17.037Z,23.6
2023-02-13T05:54:34.142Z,23.4
2023-02-13T05:55:51.246Z,21.7
2023-02-13T05:57:07.373Z,22
2023-02-13T05:58:23.493Z,23
2023-02-13T05:59:40.598Z,21.8
2023-02-13T06:00:56.724Z,21.5
2023-02-13T06:02:12.845Z,22.9
2023-02-13T06:03:29.950Z,22.6
2023-02-13T06:04:47.055Z,22.8
2023-02-13T06:06:04.160Z,22.8
2023-02-13T06:07:21.265Z,22.5
2023-02-13T06:08:38.370Z,23.1
2023-02-13T06:09:55.474Z,22.1
2023-02-13T06:11:12.579Z,22.4
2023-02-13T06:12:29.684Z,23.3
2023-02-13T06:13:46.789Z,23.1
2023-02-13T06:15:03.893Z,22.6
2023-02-13T06:16:20.998Z,21.3
2023-02-13T06:17:38.103Z,23.4
2023-02-13T06:18:54.224Z,21.2
2023-02-13T06:20:11.329Z,22.2
2023-02-13T06:21:28.434Z,25
2023-02-13T06:22:45.538Z,22.7
2023-02-13T06:24:02.643Z,22.6
2023-02-13T06:25:19.748Z,22.8
2023-02-13T06:26:36.853Z,22.8
2023-02-13T06:27:53.958Z,24.3
2023-02-13T06:29:11.063Z,25.3
2023-02-13T06:30:28.167Z,23
2023-02-13T06:31:45.272Z,23.7
2023-02-13T06:33:02.377Z,24.6
2023-02-13T06:34:19.482Z,24.1
2023-02-13T06:35:35.603Z,22.6
2023-02-13T06:36:52.707Z,25
2023-02-13T06:38:09.813Z,24
2023-02-13T06:39:25.939Z,23.9
2023-02-13T06:40:42.060Z,23.5
2023-02-13T06:41:58.186Z,23.2
2023-02-13T06:43:14.307Z,23.4
2023-02-13T06:44:31.412Z,23.6
2023-02-13T06:45:48.517Z,23.6
2023-02-13T06:47:05.622Z,24.5
2023-02-13T06:48:22.727Z,23.7
2023-02-13T06:49:39.832Z,24.6
2023-02-13T06:50:56.937Z,23.6
2023-02-13T06:52:14.041Z,23.9
2023-02-13T06:53:31.146Z,22.5
2023-02-13T06:54:48.251Z,22.2
2023-02-13T06:56:05.356Z,23.8
2023-02-13T06:57:22.461Z,24.1
2023-02-13T06:58:39.566Z,24.3
2023-02-13T06:59:55.687Z,24.9
2023-02-13T07:01:12.792Z,24.6
2023-02-13T07:02:29.897Z,23.4
2023-02-13T07:03:47.001Z,24.7
2023-02-13T07:05:04.106Z,24.7
2023-02-13T07:06:21.212Z,24.1
2023-02-13T07:07:38.316Z,23.4
2023-02-13T07:08:55.421Z,24.4
2023-02-13T07:10:12.526Z,24.9
2023-02-13T07:11:29.631Z,24.9
2023-02-13T07:12:46.736Z,26.2
2023-02-13T07:14:03.840Z,25.2
2023-02-13T07:15:20.945Z,26
2023-02-13T07:16:37.066Z,25
2023-02-13T07:17:54.171Z,25.6
2023-02-13T07:19:11.276Z,24.9
2023-02-13T07:20:28.381Z,26
2023-02-13T07:21:45.486Z,24.6
2023-02-13T07:23:02.591Z,24.2
2023-02-13T07:24:19.695Z,23
2023-02-13T07:25:36.800Z,21.7
2023-02-13T07:26:53.905Z,21
2023-02-13T07:28:11.010Z,21.1
2023-02-13T07:29:28.115Z,20.2
2023-02-13T07:30:45.220Z,20.4
2023-02-13T07:32:02.324Z,20.7
2023-02-13T07:33:18.445Z,20.6
2023-02-13T07:34:35.550Z,19.7
2023-02-13T07:35:52.655Z,19.1
2023-02-13T07:37:09.760Z,18.6
2023-02-13T07:38:26.865Z,18.9
2023-02-13T07:39:43.970Z,19
2023-02-13T07:41:01.075Z,17.8
2023-02-13T07:42:18.179Z,18.6
2023-02-13T07:44:52.388Z,18.4
2023-02-13T07:46:09.494Z,17.7
2023-02-13T07:47:26.598Z,16.9
2023-02-13T07:48:43.703Z,17
2023-02-13T07:49:59.823Z,17
2023-02-13T07:51:16.928Z,16
2023-02-13T07:52:34.033Z,17.3
2023-02-13T07:53:51.137Z,16.4
2023-02-13T07:55:08.242Z,17.4
2023-02-13T07:56:24.368Z,16.2
2023-02-13T07:57:40.488Z,16.6
2023-02-13T07:58:56.615Z,16.7
2023-02-13T08:00:12.735Z,16.4
2023-02-13T08:01:29.840Z,15.8
2023-02-13T08:02:46.945Z,16
2023-02-13T08:04:04.049Z,16.5
2023-02-13T08:05:21.153Z,15.5
2023-02-13T08:06:38.257Z,15.8
2023-02-13T08:07:55.362Z,15.7
2023-02-13T08:09:12.466Z,15.9
2023-02-13T08:10:29.570Z,15.5
2023-02-13T08:11:46.675Z,16.6
2023-02-13T08:13:03.779Z,16.7
2023-02-13T08:14:20.884Z,16.3
2023-02-13T08:15:37.988Z,17.1
2023-02-13T08:16:54.109Z,17.3
2023-02-13T08:18:11.214Z,17.1
2023-02-13T08:19:28.318Z,17.2
2023-02-13T08:20:45.422Z,16.3
2023-02-13T08:22:01.543Z,17.1
2023-02-13T08:23:18.648Z,16.8
2023-02-13T08:24:35.752Z,16.6
2023-02-13T08:25:51.878Z,15.8
2023-02-13T08:27:07.998Z,16.2
2023-02-13T08:28:24.124Z,15.9
2023-02-13T08:29:40.245Z,16.8
2023-02-13T08:30:57.349Z,17.2
2023-02-13T08:32:14.453Z,16.2
2023-02-13T08:33:31.557Z,17.1
2023-02-13T08:34:48.662Z,16.4
2023-02-13T08:36:05.766Z,16.8
2023-02-13T08:37:22.870Z,15.9
2023-02-13T08:38:39.975Z,18
2023-02-13T08:39:57.079Z,16.7
2023-02-13T08:41:14.183Z,15.4
2023-02-13T08:42:31.287Z,16.5
2023-02-13T08:43:48.391Z,15.9
2023-02-13T08:45:05.496Z,16.6
2023-02-13T08:46:21.616Z,16.8
2023-02-13T08:47:38.720Z,17.2
2023-02-13T08:48:55.825Z,16.7
2023-02-13T08:50:12.929Z,16.7
2023-02-13T08:51:30.033Z,16.4
2023-02-13T08:52:47.137Z,16.1
2023-02-13T08:54:04.241Z,16
2023-02-13T08:55:20.367Z,16.2
2023-02-13T08:56:36.488Z,16.6
2023-02-13T08:57:52.613Z,16.2
2023-02-13T08:59:08.734Z,15.6
2023-02-13T09:00:25.838Z,16.5
2023-02-13T09:01:42.943Z,16.4
2023-02-13T09:03:00.047Z,16.1
2023-02-13T09:04:17.152Z,16.3
2023-02-13T09:05:34.256Z,15.4
2023-02-13T09:06:51.361Z,15.7
2023-02-13T09:08:08.465Z,14.7
2023-02-13T09:09:25.569Z,16
2023-02-13T09:10:42.674Z,16.1
2023-02-13T09:11:59.778Z,15.8
2023-02-13T09:13:16.882Z,15.4
2023-02-13T09:14:33.986Z,16.1
2023-02-13T09:15:50.107Z,15.9
2023-02-13T09:17:07.211Z,17.2
2023-02-13T09:18:24.315Z,17
2023-02-13T09:19:41.419Z,17.1
2023-02-13T09:20:58.523Z,16.8
2023-02-13T09:22:15.627Z,17.4
2023-02-13T09:23:32.732Z,16.8
2023-02-13T09:24:49.836Z,16.5
2023-02-13T09:26:06.940Z,15.9
2023-02-13T09:27:24.045Z,15.9
2023-02-13T09:28:41.149Z,16
2023-02-13T09:29:58.253Z,15.5
2023-02-13T09:31:15.358Z,16.7
2023-02-13T09:32:31.478Z,14.7
2023-02-13T09:33:48.583Z,14.9
2023-02-13T09:35:05.688Z,15.2
2023-02-13T09:36:22.792Z,14.8
2023-02-13T09:37:39.896Z,14.3
2023-02-13T09:38:57.001Z,13.6
2023-02-13T09:40:14.105Z,13.2
2023-02-13T09:41:31.210Z,14.8
2023-02-13T09:42:48.314Z,14.4
2023-02-13T09:44:05.418Z,13.6
2023-02-13T09:45:22.523Z,14
2023-02-13T09:46:39.628Z,13.7
2023-02-13T09:47:56.732Z,14
2023-02-13T09:49:12.853Z,14
2023-02-13T09:50:29.957Z,15.6
2023-02-13T09:51:47.062Z,14.7
2023-02-13T09:53:04.166Z,14.9
2023-02-13T09:54:21.270Z,15.1
2023-02-13T09:55:38.375Z,15.1
2023-02-13T09:56:55.480Z,15.2
2023-02-13T09:58:12.584Z,14.6
2023-02-13T09:59:29.688Z,14.8
2023-02-13T10:00:46.792Z,14.6
2023-02-13T10:02:03.897Z,14.8
2023-02-13T10:03:21.001Z,15.3
2023-02-13T10:04:38.105Z,15
2023-02-13T10:05:54.226Z,15.3
2023-02-13T10:07:11.330Z,14.9
2023-02-13T10:08:28.434Z,16.2
2023-02-13T10:09:45.539Z,15
2023-02-13T10:11:02.643Z,15.4
2023-02-13T10:12:19.748Z,15.7
2023-02-13T10:13:36.852Z,15.9
2023-02-13T10:14:53.956Z,15.7
2023-02-13T10:16:11.061Z,15.8
2023-02-13T10:17:28.165Z,15.2
2023-02-13T10:18:45.269Z,14.5
2023-02-13T10:20:02.374Z,14.6
2023-02-13T10:21:19.478Z,15.8
2023-02-13T10:22:35.598Z,15.3
2023-02-13T10:23:52.702Z,16.7
2023-02-13T10:25:09.806Z,14.6
2023-02-13T10:26:25.932Z,15.5
2023-02-13T10:27:42.052Z,14.9
2023-02-13T10:28:59.156Z,15.8
2023-02-13T10:30:15.282Z,15.9
2023-02-13T10:31:31.402Z,15.6
2023-02-13T10:32:48.506Z,15.1
2023-02-13T10:34:05.611Z,15.7
2023-02-13T10:35:22.715Z,14.5
2023-02-13T10:36:39.820Z,14.6
2023-02-13T10:37:56.924Z,14.9
2023-02-13T10:39:14.028Z,14.9
2023-02-13T10:40:31.133Z,14.7
2023-02-13T10:41:48.237Z,13.1
2023-02-13T10:43:05.341Z,13.1
2023-02-13T10:44:22.446Z,13.5
2023-02-13T10:45:39.551Z,14.1
2023-02-13T10:46:56.655Z,14.3
2023-02-13T10:48:12.776Z,14.5
2023-02-13T10:49:29.880Z,15.5
2023-02-13T10:50:46.985Z,16.5
2023-02-13T10:52:04.089Z,16.3
2023-02-13T10:53:21.194Z,16.8
2023-02-13T10:54:38.298Z,16.5
2023-02-13T10:55:55.402Z,16.6
2023-02-13T10:57:12.507Z,15.9
2023-02-13T10:58:29.611Z,14.2
2023-02-13T10:59:46.715Z,14
2023-02-13T11:01:03.819Z,14
2023-02-13T11:02:20.924Z,13.5
2023-02-13T11:03:38.028Z,13.2
2023-02-13T11:04:54.148Z,13.1
2023-02-13T11:06:11.252Z,15.1
2023-02-13T11:07:28.357Z,15.3
2023-02-13T11:08:45.461Z,14.8
2023-02-13T11:10:02.565Z,14.4
2023-02-13T11:11:19.670Z,14.3
2023-02-13T11:12:36.774Z,14.2
2023-02-13T11:13:53.878Z,14.9
2023-02-13T11:15:10.983Z,15.3
2023-02-13T11:16:28.087Z,14.7
2023-02-13T11:17:45.192Z,14.5
2023-02-13T11:19:02.297Z,14.1
2023-02-13T11:20:18.422Z,13.9
2023-02-13T11:21:34.543Z,13.7
2023-02-13T11:22:51.648Z,13.7
2023-02-13T11:24:08.752Z,14.5
2023-02-13T11:25:25.857Z,14
2023-02-13T11:26:42.961Z,12.3
2023-02-13T11:28:00.066Z,13.3
2023-02-13T11:29:17.170Z,14
2023-02-13T11:30:34.275Z,13.5
2023-02-13T11:31:50.401Z,13.6
2023-02-13T11:33:06.521Z,14.1
2023-02-13T11:34:23.626Z,14
2023-02-13T11:35:40.730Z,13.4
2023-02-13T11:36:57.835Z,13.7
2023-02-13T11:38:14.939Z,12.1
2023-02-13T11:39:32.044Z,12.3
2023-02-13T11:40:49.148Z,12
2023-02-13T11:42:06.252Z,11.6
2023-02-13T11:43:23.356Z,12.5
2023-02-13T11:44:40.461Z,13.1
2023-02-13T11:45:57.565Z,12.6
2023-02-13T11:47:14.669Z,12.8
2023-02-13T11:48:31.773Z,13
2023-02-13T11:49:47.894Z,13
2023-02-13T11:51:04.998Z,12.3
2023-02-13T11:52:22.102Z,13.2
2023-02-13T11:53:39.206Z,12.1
2023-02-13T11:54:56.308Z,12
2023-02-13T11:56:13.413Z,12.2
2023-02-13T11:57:30.517Z,10.7
2023-02-13T11:58:46.643Z,11.2
2023-02-13T12:00:02.764Z,10.4
2023-02-13T12:01:19.868Z,11.1
2023-02-13T12:02:35.994Z,11.8
2023-02-13T12:03:52.114Z,11.7
2023-02-13T12:05:09.219Z,12.1
2023-02-13T12:06:26.323Z,13
2023-02-13T12:07:43.428Z,12.1
2023-02-13T12:09:00.532Z,12.2
2023-02-13T12:10:17.636Z,12.2
2023-02-13T12:11:34.741Z,12.5
2023-02-13T12:12:51.845Z,11.7
2023-02-13T12:14:08.950Z,11.8
2023-02-13T12:15:26.054Z,12.8
2023-02-13T12:16:43.159Z,11.8
2023-02-13T12:18:00.263Z,12
2023-02-13T12:19:17.367Z,12.3
2023-02-13T12:20:33.488Z,11.4
2023-02-13T12:21:50.592Z,11.6
2023-02-13T12:23:07.698Z,11.7
2023-02-13T12:24:24.802Z,11.6
2023-02-13T12:25:41.907Z,11.7
2023-02-13T12:26:59.011Z,12
2023-02-13T12:28:16.116Z,11.8
2023-02-13T12:29:32.241Z,11.7
2023-02-13T12:30:48.362Z,11.7
2023-02-13T12:32:04.488Z,13.2
2023-02-13T12:33:20.608Z,11
2023-02-13T12:34:37.713Z,10.9
2023-02-13T12:35:54.817Z,11.5
2023-02-13T12:37:11.922Z,11.8
2023-02-13T12:38:29.026Z,12.1
2023-02-13T12:39:46.131Z,12.4
2023-02-13T12:41:02.251Z,12
2023-02-13T12:42:19.356Z,11.8
2023-02-13T12:43:36.461Z,10.8
2023-02-13T12:44:53.566Z,10.4
2023-02-13T12:46:10.670Z,10.1
2023-02-13T12:47:27.775Z,10.3
2023-02-13T12:48:44.879Z,10.2
2023-02-13T12:50:01.984Z,10.3
2023-02-13T12:51:19.088Z,10.6
2023-02-13T12:52:36.193Z,10.1
2023-02-13T12:53:53.297Z,9.7
2023-02-13T12:55:10.402Z,9.5
2023-02-13T12:56:27.506Z,9.6
2023-02-13T12:57:43.627Z,9.9
2023-02-13T12:58:59.753Z,9.6
2023-02-13T13:00:15.873Z,9.4
2023-02-13T13:01:31.999Z,9.2
2023-02-13T13:02:48.120Z,9.8
2023-02-13T13:04:05.224Z,9.5
2023-02-13T13:05:22.329Z,10.2
2023-02-13T13:06:39.434Z,9.7
2023-02-13T13:07:56.538Z,9.9
2023-02-13T13:09:13.642Z,10
2023-02-13T13:10:30.745Z,9.9
2023-02-13T13:11:47.850Z,9.8
2023-02-13T13:13:04.954Z,9.7
2023-02-13T13:15:39.163Z,9.9
2023-02-13T13:16:56.268Z,10.5
2023-02-13T13:18:13.373Z,10.3
2023-02-13T13:19:29.493Z,10.2
2023-02-13T13:20:46.598Z,10.2
2023-02-13T13:22:03.702Z,10
2023-02-13T13:23:20.807Z,9.5
2023-02-13T13:24:37.911Z,10
2023-02-13T13:25:55.016Z,9.5
2023-02-13T13:27:12.120Z,11
2023-02-13T13:28:29.225Z,8.6
2023-02-13T13:29:45.351Z,9.3
2023-02-13T13:31:01.472Z,9.5
2023-02-13T13:32:18.576Z,9.1
2023-02-13T13:33:34.702Z,12.1
2023-02-13T13:34:51.805Z,11.5
2023-02-13T13:36:07.925Z,9.7
2023-02-13T13:37:25.030Z,10.9
2023-02-13T13:38:42.134Z,10
2023-02-13T13:39:59.239Z,8.9
2023-02-13T13:41:16.343Z,10.8
2023-02-13T13:42:33.448Z,10.4
2023-02-13T13:43:50.553Z,11.3
2023-02-13T13:45:07.657Z,9.9
2023-02-13T13:46:24.762Z,9
2023-02-13T13:47:41.866Z,10
2023-02-13T13:48:58.971Z,10.4
2023-02-13T13:50:16.075Z,8.9
2023-02-13T13:51:33.180Z,10.9
2023-02-13T13:52:49.300Z,10.4
2023-02-13T13:54:06.405Z,9.8
2023-02-13T13:55:23.510Z,12
2023-02-13T13:56:40.614Z,11
2023-02-13T13:57:57.719Z,9.4
2023-02-13T13:59:14.823Z,9.3
2023-02-13T14:00:30.949Z,11.5
2023-02-13T14:01:47.069Z,10.7
2023-02-13T14:03:04.174Z,9.5
2023-02-13T14:04:20.300Z,9.6
2023-02-13T14:05:36.420Z,10.9
2023-02-13T14:06:53.524Z,9.9
2023-02-13T14:08:10.629Z,9.3
2023-02-13T14:09:27.733Z,9.4
2023-02-13T14:10:44.838Z,9.2
2023-02-13T14:12:01.942Z,11.5
2023-02-13T14:13:19.047Z,10.3
2023-02-13T14:14:36.151Z,10.6
2023-02-13T14:15:53.256Z,9.4
2023-02-13T14:17:10.360Z,9.4
2023-02-13T14:18:27.465Z,10
2023-02-13T14:19:44.569Z,10
2023-02-13T14:21:01.674Z,9.1
2023-02-13T14:22:17.795Z,8.8
2023-02-13T14:23:34.899Z,9.6
2023-02-13T14:24:52.004Z,11.1
2023-02-13T14:26:09.108Z,11.6
2023-02-13T14:27:26.213Z,11.3
2023-02-13T14:28:43.317Z,11.1
2023-02-13T14:30:00.422Z,9.8
2023-02-13T14:31:16.548Z,9.2
2023-02-13T14:32:32.669Z,9.4
2023-02-13T14:33:48.794Z,9.4
2023-02-13T14:35:04.915Z,10.1
2023-02-13T14:36:22.020Z,10.2
2023-02-13T14:37:39.125Z,9.8
2023-02-13T14:38:56.229Z,10.5
2023-02-13T14:40:13.334Z,10.5
2023-02-13T14:41:30.438Z,9.4
2023-02-13T14:42:47.543Z,9.6
2023-02-13T14:44:04.647Z,9.9
2023-02-13T14:45:21.753Z,9.5
2023-02-13T14:46:38.857Z,10
2023-02-13T14:47:55.962Z,9.4
2023-02-13T14:49:13.067Z,9.5
2023-02-13T14:50:30.171Z,9.7
2023-02-13T14:51:46.292Z,9.2
2023-02-13T14:53:03.396Z,9.3
2023-02-13T14:54:20.501Z,10
2023-02-13T14:55:37.605Z,9.1
2023-02-13T14:56:54.711Z,9.9
2023-02-13T14:58:11.815Z,9.6
2023-02-13T14:59:28.920Z,9.8
2023-02-13T15:00:46.025Z,9.6
2023-02-13T15:02:03.129Z,9.8
2023-02-13T15:03:20.234Z,9.9
2023-02-13T15:04:37.338Z,9.9
2023-02-13T15:05:54.443Z,10.1
2023-02-13T15:07:11.548Z,11
2023-02-13T15:08:27.668Z,11.2
2023-02-13T15:09:44.773Z,10.9
2023-02-13T15:11:01.878Z,10.1
2023-02-13T15:12:18.982Z,10.8
2023-02-13T15:13:36.087Z,11.9
2023-02-13T15:14:53.191Z,12
2023-02-13T15:16:10.296Z,11.6
2023-02-13T15:17:27.400Z,10.1
2023-02-13T15:18:44.505Z,10.2
2023-02-13T15:20:01.609Z,9.4
2023-02-13T15:21:18.714Z,9.7
2023-02-13T15:22:35.818Z,10.4
2023-02-13T15:23:52.923Z,9.6
2023-02-13T15:25:09.043Z,9.9
2023-02-13T15:26:26.148Z,10.4
2023-02-13T15:27:43.252Z,10.1
2023-02-13T15:29:00.357Z,9.9
2023-02-13T15:30:17.461Z,10.7
2023-02-13T15:31:34.565Z,9.8
2023-02-13T15:32:51.670Z,9.8
2023-02-13T15:34:08.774Z,10
2023-02-13T15:35:25.879Z,10.3
2023-02-13T15:36:42.983Z,10.7
2023-02-13T15:38:00.088Z,10.2
2023-02-13T15:39:17.192Z,10.1
2023-02-13T15:41:51.401Z,11.6
2023-02-13T15:43:07.521Z,11.9
2023-02-13T15:44:24.626Z,11.9
2023-02-13T15:45:41.731Z,11
2023-02-13T15:46:58.835Z,11.1
2023-02-13T15:48:15.939Z,10.3
2023-02-13T15:49:32.065Z,10.2
2023-02-13T15:50:48.186Z,10.7
2023-02-13T15:52:05.290Z,10.8
2023-02-13T15:53:22.395Z,10.4
2023-02-13T15:54:39.499Z,10.2
2023-02-13T15:55:56.604Z,10
2023-02-13T15:57:13.708Z,9.7
2023-02-13T15:58:30.812Z,10.5
2023-02-13T15:59:47.917Z,10.2
2023-02-13T16:01:05.021Z,10.1
2023-02-13T16:02:21.147Z,10.6
2023-02-13T16:03:37.267Z,10.5
2023-02-13T16:04:54.371Z,10.4
2023-02-13T16:06:11.476Z,9.6
2023-02-13T16:07:28.580Z,10.1
2023-02-13T16:08:45.684Z,12.4
2023-02-13T16:10:02.789Z,9.2
2023-02-13T16:11:19.893Z,10.7
2023-02-13T16:12:36.997Z,11.4
2023-02-13T16:13:54.101Z,9.6
2023-02-13T16:15:11.205Z,13.6
2023-02-13T16:16:28.309Z,12.9
2023-02-13T16:17:45.414Z,10.9
2023-02-13T16:19:02.518Z,12.7
2023-02-13T16:20:18.638Z,10.4
2023-02-13T16:21:35.743Z,11.5
2023-02-13T16:22:52.847Z,12
2023-02-13T16:24:09.951Z,11.1
2023-02-13T16:25:27.055Z,12.3
2023-02-13T16:26:44.159Z,10.6
2023-02-13T16:28:01.264Z,10.9
2023-02-13T16:29:18.368Z,13.7
2023-02-13T16:30:35.472Z,13.4
2023-02-13T16:31:52.577Z,11.4
2023-02-13T16:33:09.682Z,13.4
2023-02-13T16:34:26.786Z,13.4
2023-02-13T16:35:43.891Z,11.1
2023-02-13T16:37:00.012Z,11.1
2023-02-13T16:38:17.117Z,13.1
2023-02-13T16:39:34.221Z,12.5
2023-02-13T16:40:51.326Z,12.5
2023-02-13T16:42:08.431Z,12.6
2023-02-13T16:43:25.536Z,12.7
2023-02-13T16:44:42.641Z,12.7
2023-02-13T16:45:59.746Z,11.5
2023-02-13T16:47:16.851Z,10.7
2023-02-13T16:48:33.955Z,12.2
2023-02-13T16:49:51.060Z,12
2023-02-13T16:51:08.165Z,12.4
2023-02-13T16:52:25.270Z,12.5
2023-02-13T16:53:41.391Z,11.9
2023-02-13T16:54:58.496Z,13.2
2023-02-13T16:56:15.601Z,12.8
2023-02-13T16:57:32.705Z,13.1
2023-02-13T16:58:48.826Z,11.6
2023-02-13T17:00:05.930Z,11.2
2023-02-13T17:01:23.035Z,12.3
2023-02-13T17:02:40.139Z,12.6
2023-02-13T17:03:57.244Z,13.1
2023-02-13T17:05:14.349Z,12.2
2023-02-13T17:06:31.453Z,11.8
2023-02-13T17:07:48.559Z,12.2
2023-02-13T17:09:05.663Z,12.8
2023-02-13T17:10:22.768Z,13.5
2023-02-13T17:11:39.872Z,13.3
2023-02-13T17:12:56.977Z,14.1
2023-02-13T17:14:14.081Z,14.5
2023-02-13T17:15:30.202Z,13.6
2023-02-13T17:16:47.307Z,15
2023-02-13T17:18:04.412Z,14.2